Time;durP1;ratioP1;P1;durP2;ratioP2;P2;SDS_P1;SDS_P2;PMS_P1;PMS_P2;Temp;Humidity;BMP_temperature;BMP_pressure;BME280_temperature;BME280_humidity;BME280_pressure;Samples;Min_cycle;Max_cycle;Signal;HPM_P1;HPM_P2
2023/08/11 00:00:30;;;;;;;1.77;0.90;;;18.90;99.90;;;;;;4174407;28;20364;-57
2023/08/11 00:02:51;;;;;;;0.93;0.93;;;18.90;99.90;;;;;;4170885;28;20048;-57
2023/08/11 00:05:11;;;;;;;0.90;0.90;;;18.90;99.90;;;;;;4173381;28;20370;-57
2023/08/11 00:07:31;;;;;;;0.93;0.90;;;18.80;99.90;;;;;;4173676;28;20048;-57
2023/08/11 00:09:51;;;;;;;0.93;0.93;;;18.70;99.90;;;;;;4173802;28;20372;-57
2023/08/11 00:12:10;;;;;;;2.22;0.80;;;18.70;99.90;;;;;;4174413;28;20071;-57
2023/08/11 00:14:31;;;;;;;2.05;1.08;;;18.70;99.90;;;;;;4163894;28;20051;-57
2023/08/11 00:16:51;;;;;;;2.22;0.90;;;18.60;99.90;;;;;;4173181;28;20044;-57
2023/08/11 00:19:11;;;;;;;0.90;0.90;;;18.60;99.90;;;;;;4170709;28;20056;-57
2023/08/11 00:21:30;;;;;;;4.43;2.00;;;18.70;99.90;;;;;;4164223;28;20049;-57
2023/08/11 00:23:51;;;;;;;1.63;1.10;;;18.60;99.90;;;;;;4171167;28;20065;-57
2023/08/11 00:26:11;;;;;;;1.00;1.00;;;18.60;99.90;;;;;;4172063;28;20280;-57
2023/08/11 00:28:31;;;;;;;0.90;0.90;;;18.50;99.90;;;;;;4173889;28;20044;-57
2023/08/11 00:30:51;;;;;;;0.98;0.98;;;18.60;99.90;;;;;;4173688;28;20060;-57
2023/08/11 00:33:11;;;;;;;2.97;1.10;;;18.60;99.90;;;;;;4172804;28;20104;-56
2023/08/11 00:35:31;;;;;;;1.75;0.98;;;18.70;99.90;;;;;;4170964;28;20049;-57
2023/08/11 00:37:51;;;;;;;0.98;0.98;;;18.70;99.90;;;;;;4169864;28;20432;-56
2023/08/11 00:40:11;;;;;;;0.90;0.90;;;18.70;99.90;;;;;;4171851;28;20076;-56
2023/08/11 00:42:31;;;;;;;1.52;0.90;;;18.60;99.90;;;;;;4171576;28;20248;-56
2023/08/11 00:44:52;;;;;;;1.35;1.10;;;18.60;99.90;;;;;;4167190;28;20460;-57
2023/08/11 00:47:12;;;;;;;1.00;1.00;;;18.50;99.90;;;;;;4170301;28;20375;-57
2023/08/11 00:49:33;;;;;;;0.98;0.98;;;18.40;99.90;;;;;;4171570;28;20084;-57
2023/08/11 00:51:53;;;;;;;1.08;1.08;;;18.40;99.90;;;;;;4173864;28;20060;-57
2023/08/11 00:54:14;;;;;;;1.10;1.10;;;18.40;99.90;;;;;;4173707;28;20088;-57
2023/08/11 00:56:35;;;;;;;1.08;1.08;;;18.40;99.90;;;;;;4171980;28;20241;-57
2023/08/11 00:58:55;;;;;;;1.50;0.90;;;18.40;99.90;;;;;;4172769;28;20091;-57
2023/08/11 01:01:15;;;;;;;1.00;1.00;;;18.50;99.90;;;;;;4172854;28;20072;-57
2023/08/11 01:03:35;;;;;;;1.27;1.10;;;18.50;99.90;;;;;;4173505;28;20079;-57
2023/08/11 01:06:38;;;;;;;1.20;1.20;;;18.60;99.90;;;;;;4173727;28;20133;-57
2023/08/11 01:09:27;;;;;;;1.10;1.10;;;18.60;99.90;;;;;;4167050;28;20100;-56
2023/08/11 01:12:09;;;;;;;1.00;1.00;;;18.60;99.90;;;;;;4170013;28;20056;-57
2023/08/11 01:14:44;;;;;;;1.80;1.03;;;18.60;99.90;;;;;;4171657;28;20091;-57
2023/08/11 01:17:09;;;;;;;1.05;1.00;;;18.60;99.90;;;;;;4172866;28;20076;-57
2023/08/11 01:19:34;;;;;;;2.55;1.55;;;18.60;99.90;;;;;;4172899;28;20398;-57
2023/08/11 01:21:58;;;;;;;0.90;0.90;;;18.60;99.90;;;;;;4173302;28;20105;-57
2023/08/11 01:24:18;;;;;;;4.53;1.13;;;18.50;99.90;;;;;;4172230;28;20391;-57
2023/08/11 01:26:38;;;;;;;1.58;0.95;;;18.50;99.90;;;;;;4168891;28;20060;-57
2023/08/11 01:28:58;;;;;;;1.00;1.00;;;18.40;99.90;;;;;;4172441;28;20044;-57
2023/08/11 01:31:18;;;;;;;0.90;0.90;;;18.30;99.90;;;;;;4172918;28;20095;-57
2023/08/11 01:33:38;;;;;;;1.00;1.00;;;18.30;99.90;;;;;;4172444;28;20048;-57
2023/08/11 01:35:59;;;;;;;1.10;1.10;;;18.30;99.90;;;;;;4171534;28;20105;-58
2023/08/11 01:38:18;;;;;;;1.20;1.20;;;18.30;99.90;;;;;;4172957;28;20091;-57
2023/08/11 01:40:39;;;;;;;1.00;1.00;;;18.30;99.90;;;;;;4165040;28;20080;-57
2023/08/11 01:43:02;;;;;;;1.00;1.00;;;18.30;99.90;;;;;;4173123;28;20103;-57
2023/08/11 01:45:23;;;;;;;1.20;1.20;;;18.20;99.90;;;;;;4170756;28;20044;-57
2023/08/11 01:47:46;;;;;;;1.02;1.02;;;18.20;99.90;;;;;;4165826;28;20075;-57
2023/08/11 01:50:08;;;;;;;1.48;0.90;;;18.20;99.90;;;;;;4169445;28;20116;-57
2023/08/11 01:52:31;;;;;;;1.05;1.05;;;18.20;99.90;;;;;;4172363;28;20048;-57
2023/08/11 01:54:51;;;;;;;2.10;1.38;;;18.20;99.90;;;;;;4173084;28;20056;-57
2023/08/11 01:57:11;;;;;;;1.25;1.05;;;18.20;99.90;;;;;;4172152;28;20080;-57
2023/08/11 01:59:31;;;;;;;0.93;0.93;;;18.20;99.90;;;;;;4172529;28;20052;-58
2023/08/11 02:01:51;;;;;;;1.83;1.52;;;18.10;99.90;;;;;;4171328;28;20103;-57
2023/08/11 02:04:12;;;;;;;0.90;0.90;;;18.10;99.90;;;;;;4173005;28;20068;-57
2023/08/11 02:06:32;;;;;;;0.98;0.98;;;18.10;99.90;;;;;;4172813;28;20052;-57
2023/08/11 02:08:52;;;;;;;3.90;1.10;;;18.10;99.90;;;;;;4172129;28;20095;-56
2023/08/11 02:11:13;;;;;;;1.20;1.20;;;18.00;99.90;;;;;;4172164;28;20118;-57
2023/08/11 02:13:33;;;;;;;4.28;1.20;;;17.90;99.90;;;;;;4172539;28;20455;-57
2023/08/11 02:15:53;;;;;;;1.80;1.08;;;17.80;99.90;;;;;;4169773;28;20044;-57
2023/08/11 02:18:13;;;;;;;1.10;1.10;;;17.70;99.90;;;;;;4172755;28;20095;-57
2023/08/11 02:20:33;;;;;;;1.17;1.15;;;17.70;99.90;;;;;;4171364;28;20080;-57
2023/08/11 02:22:53;;;;;;;1.27;1.25;;;17.70;99.90;;;;;;4171268;28;20252;-57
2023/08/11 02:25:14;;;;;;;1.10;1.10;;;17.60;99.90;;;;;;4172666;28;20048;-57
2023/08/11 02:27:35;;;;;;;1.35;1.25;;;17.40;99.90;;;;;;4171253;28;20053;-57
2023/08/11 02:29:55;;;;;;;1.40;1.30;;;17.20;99.90;;;;;;4171664;28;20242;-57
2023/08/11 02:32:17;;;;;;;1.27;1.25;;;17.30;99.90;;;;;;4172235;28;20355;-57
2023/08/11 02:34:37;;;;;;;1.58;1.58;;;17.30;99.90;;;;;;4172225;28;20285;-57
2023/08/11 02:36:57;;;;;;;2.17;1.30;;;17.40;99.90;;;;;;4169729;28;20053;-57
2023/08/11 02:39:18;;;;;;;1.17;1.10;;;17.40;99.90;;;;;;4168210;28;20047;-57
2023/08/11 02:41:38;;;;;;;1.38;1.27;;;17.40;99.90;;;;;;4172145;28;20048;-57
2023/08/11 02:43:58;;;;;;;1.10;1.10;;;17.40;99.90;;;;;;4172443;28;20052;-57
2023/08/11 02:46:18;;;;;;;1.30;1.20;;;17.40;99.90;;;;;;4167870;28;20105;-57
2023/08/11 02:48:39;;;;;;;1.00;1.00;;;17.50;99.90;;;;;;4175536;28;20105;-57
2023/08/11 02:51:03;;;;;;;1.50;1.40;;;17.50;99.90;;;;;;4172672;28;20045;-57
2023/08/11 02:53:23;;;;;;;1.48;1.20;;;17.50;99.90;;;;;;4174575;28;20097;-57
2023/08/11 02:55:43;;;;;;;1.10;1.10;;;17.50;99.90;;;;;;4173595;28;20045;-57
2023/08/11 02:58:03;;;;;;;1.73;1.20;;;17.50;99.90;;;;;;4174064;28;20080;-56
2023/08/11 03:00:23;;;;;;;1.10;1.10;;;17.40;99.90;;;;;;4175179;28;20111;-57
2023/08/11 03:02:47;;;;;;;1.10;1.10;;;17.40;99.90;;;;;;4173824;28;20096;-56
2023/08/11 03:05:09;;;;;;;1.10;1.10;;;17.30;99.90;;;;;;4172456;28;20063;-57
2023/08/11 03:07:31;;;;;;;1.10;1.10;;;17.30;99.90;;;;;;4172516;28;20044;-57
2023/08/11 03:09:51;;;;;;;3.13;1.00;;;17.20;99.90;;;;;;4175239;28;20048;-56
2023/08/11 03:12:11;;;;;;;1.10;1.10;;;17.20;99.90;;;;;;4167786;28;20096;-57
2023/08/11 03:14:31;;;;;;;1.35;1.25;;;17.10;99.90;;;;;;4170008;28;20048;-56
2023/08/11 03:16:50;;;;;;;1.00;1.00;;;17.00;99.90;;;;;;4164258;28;20103;-56
2023/08/11 03:19:10;;;;;;;1.02;1.00;;;17.00;99.90;;;;;;4170217;28;20053;-56
2023/08/11 03:21:30;;;;;;;1.05;1.05;;;17.00;99.90;;;;;;4172777;28;20080;-56
2023/08/11 03:23:50;;;;;;;1.08;1.08;;;17.10;99.90;;;;;;4172546;28;20052;-57
2023/08/11 03:26:10;;;;;;;1.17;1.08;;;17.10;99.90;;;;;;4174223;28;20088;-57
2023/08/11 03:28:30;;;;;;;2.38;1.05;;;17.10;99.90;;;;;;4173872;28;20079;-56
2023/08/11 03:30:50;;;;;;;1.30;1.27;;;17.10;99.90;;;;;;4174155;28;20076;-56
2023/08/11 03:33:09;;;;;;;1.00;1.00;;;17.00;99.90;;;;;;4174776;28;20064;-56
2023/08/11 03:35:33;;;;;;;4.47;1.10;;;16.90;99.90;;;;;;4167670;28;20395;-57
2023/08/11 03:37:53;;;;;;;1.20;1.02;;;16.80;99.90;;;;;;4171050;28;20076;-56
2023/08/11 03:40:13;;;;;;;3.17;1.48;;;16.90;99.90;;;;;;4173528;28;20380;-56
2023/08/11 03:42:34;;;;;;;1.48;1.38;;;16.90;99.90;;;;;;4170249;28;20048;-56
2023/08/11 03:44:54;;;;;;;1.23;1.10;;;16.90;99.90;;;;;;4172820;28;20078;-56
2023/08/11 03:47:14;;;;;;;1.33;1.23;;;16.90;99.90;;;;;;4170922;28;20048;-56
2023/08/11 03:49:34;;;;;;;1.33;1.30;;;16.90;99.90;;;;;;4174499;28;20054;-56
2023/08/11 03:51:55;;;;;;;1.15;1.15;;;16.90;99.90;;;;;;4173488;28;20241;-56
2023/08/11 03:54:15;;;;;;;1.67;1.33;;;16.90;99.90;;;;;;4174660;28;20140;-57
2023/08/11 03:56:35;;;;;;;1.73;1.38;;;16.90;99.90;;;;;;4174308;28;20057;-57
2023/08/11 03:58:55;;;;;;;1.38;1.27;;;16.90;99.90;;;;;;4173935;28;20418;-56
2023/08/11 04:01:15;;;;;;;1.73;1.50;;;17.00;99.90;;;;;;4174512;28;20075;-56
2023/08/11 04:03:35;;;;;;;1.30;1.30;;;17.00;99.90;;;;;;4173651;28;20233;-56
2023/08/11 04:05:55;;;;;;;1.45;1.45;;;17.00;99.90;;;;;;4172320;28;20221;-56
2023/08/11 04:08:15;;;;;;;1.60;1.10;;;17.00;99.90;;;;;;4174446;28;20057;-57
2023/08/11 04:10:36;;;;;;;1.10;1.10;;;17.00;99.90;;;;;;4174203;28;20072;-56
2023/08/11 04:12:56;;;;;;;3.72;1.45;;;17.00;99.90;;;;;;4174150;28;20082;-57
2023/08/11 04:15:16;;;;;;;3.47;1.27;;;16.90;99.90;;;;;;4172502;28;20064;-57
2023/08/11 04:17:36;;;;;;;2.13;1.08;;;16.80;99.90;;;;;;4173788;28;20056;-57
2023/08/11 04:19:56;;;;;;;1.15;1.15;;;16.80;99.90;;;;;;4173526;28;20068;-56
2023/08/11 04:22:16;;;;;;;1.30;1.20;;;16.70;99.90;;;;;;4168570;28;20084;-57
2023/08/11 04:24:48;;;;;;;3.05;2.08;;;16.80;99.90;;;;;;4172972;28;20043;-56
2023/08/11 04:27:08;;;;;;;3.75;1.10;;;16.80;99.90;;;;;;4170324;28;20048;-57
2023/08/11 04:29:28;;;;;;;1.10;1.10;;;16.70;99.90;;;;;;4173912;28;20354;-56
2023/08/11 04:31:47;;;;;;;3.53;1.13;;;16.60;99.90;;;;;;4173363;28;20045;-56
2023/08/11 04:34:08;;;;;;;1.33;1.20;;;16.60;99.90;;;;;;4166994;28;20044;-57
2023/08/11 04:36:28;;;;;;;1.65;1.33;;;16.50;99.90;;;;;;4173153;28;20075;-55
2023/08/11 04:38:47;;;;;;;1.40;1.40;;;16.50;99.90;;;;;;4173912;28;20048;-54
2023/08/11 04:41:08;;;;;;;1.10;1.10;;;16.40;99.90;;;;;;4165320;28;20110;-54
2023/08/11 04:43:29;;;;;;;2.90;1.42;;;16.30;99.90;;;;;;4173283;28;20390;-55
2023/08/11 04:45:49;;;;;;;1.70;1.60;;;16.20;99.90;;;;;;4171774;28;20080;-54
2023/08/11 04:48:08;;;;;;;1.50;1.40;;;16.30;99.90;;;;;;4173441;28;20047;-55
2023/08/11 04:50:29;;;;;;;1.30;1.30;;;16.50;99.90;;;;;;4170324;28;20079;-54
2023/08/11 04:52:49;;;;;;;1.52;1.52;;;16.60;99.90;;;;;;4173757;28;20056;-55
2023/08/11 04:55:09;;;;;;;1.98;1.30;;;16.50;99.90;;;;;;4173093;28;20045;-54
2023/08/11 04:57:29;;;;;;;1.40;1.40;;;16.50;99.90;;;;;;4171761;28;20068;-54
2023/08/11 04:59:49;;;;;;;1.30;1.30;;;16.60;99.90;;;;;;4171959;28;20060;-54
2023/08/11 05:02:09;;;;;;;4.40;2.25;;;16.80;99.90;;;;;;4169207;28;20053;-55
2023/08/11 05:04:29;;;;;;;1.48;1.38;;;16.90;99.90;;;;;;4164172;28;20044;-55
2023/08/11 05:06:49;;;;;;;1.88;1.20;;;16.90;99.90;;;;;;4171677;28;20048;-54
2023/08/11 05:09:09;;;;;;;2.03;1.40;;;17.10;99.90;;;;;;4168592;28;20056;-55
2023/08/11 05:11:29;;;;;;;1.58;1.48;;;17.20;99.90;;;;;;4171261;28;20079;-55
2023/08/11 05:13:49;;;;;;;2.08;1.38;;;17.30;99.90;;;;;;4173533;28;20044;-55
2023/08/11 05:16:09;;;;;;;1.77;1.70;;;17.30;99.90;;;;;;4173020;28;20083;-55
2023/08/11 05:18:29;;;;;;;1.55;1.45;;;17.30;99.90;;;;;;4172721;28;20375;-55
2023/08/11 05:21:05;;;;;;;4.03;1.90;;;17.00;99.90;;;;;;4170992;28;20048;-55
2023/08/11 05:23:25;;;;;;;1.33;1.30;;;17.10;99.90;;;;;;4173065;28;20266;-55
2023/08/11 05:25:45;;;;;;;3.08;1.30;;;17.30;99.90;;;;;;4173112;28;20056;-55
2023/08/11 05:28:05;;;;;;;1.30;1.30;;;17.40;99.90;;;;;;4173110;28;20088;-55
2023/08/11 05:30:26;;;;;;;1.30;1.20;;;17.40;99.90;;;;;;4172503;28;20068;-56
2023/08/11 05:32:46;;;;;;;2.30;1.48;;;17.60;99.90;;;;;;4171947;28;20052;-55
2023/08/11 05:35:08;;;;;;;2.40;1.55;;;17.60;99.90;;;;;;4173303;28;20092;-55
2023/08/11 05:37:28;;;;;;;5.88;1.63;;;17.50;99.90;;;;;;4170467;28;20036;-55
2023/08/11 05:39:48;;;;;;;2.88;1.52;;;17.40;99.90;;;;;;4171188;28;20060;-55
2023/08/11 05:42:08;;;;;;;2.15;1.30;;;17.30;99.90;;;;;;4172653;28;20052;-55
2023/08/11 05:44:28;;;;;;;1.58;1.48;;;17.30;99.90;;;;;;4172140;28;20107;-55
2023/08/11 05:46:47;;;;;;;3.03;1.30;;;17.60;99.90;;;;;;4170186;28;20053;-55
2023/08/11 05:49:08;;;;;;;3.80;1.48;;;17.70;99.90;;;;;;4172846;28;20363;-55
2023/08/11 05:51:28;;;;;;;1.17;1.00;;;17.60;99.90;;;;;;4172609;28;20383;-55
2023/08/11 05:53:48;;;;;;;1.17;1.17;;;17.80;99.90;;;;;;4171681;28;20055;-55
2023/08/11 05:56:09;;;;;;;1.60;1.50;;;17.70;99.90;;;;;;4172617;28;20053;-55
2023/08/11 05:58:29;;;;;;;1.50;1.40;;;17.90;99.90;;;;;;4172539;28;20087;-56
2023/08/11 06:00:49;;;;;;;2.65;1.17;;;18.20;99.90;;;;;;4172922;28;20041;-55
2023/08/11 06:03:11;;;;;;;1.33;1.17;;;18.20;99.90;;;;;;4172009;28;20068;-55
2023/08/11 06:05:32;;;;;;;1.23;0.95;;;18.40;99.90;;;;;;4172983;28;20128;-56
2023/08/11 06:07:51;;;;;;;3.75;1.30;;;18.30;99.90;;;;;;4172845;28;20052;-55
2023/08/11 06:10:26;;;;;;;1.73;1.10;;;18.30;99.90;;;;;;4171155;28;20402;-56
2023/08/11 06:12:46;;;;;;;1.42;1.30;;;18.50;99.90;;;;;;4172789;28;20045;-56
2023/08/11 06:15:06;;;;;;;1.00;1.00;;;18.70;99.90;;;;;;4171433;28;20084;-55
2023/08/11 06:17:27;;;;;;;3.08;1.23;;;18.60;99.90;;;;;;4170571;28;20056;-55
2023/08/11 06:19:47;;;;;;;1.67;1.10;;;18.60;99.90;;;;;;4172292;28;20045;-55
2023/08/11 06:22:07;;;;;;;1.45;1.20;;;18.70;99.90;;;;;;4171955;28;20104;-56
2023/08/11 06:24:27;;;;;;;2.20;1.58;;;19.30;99.90;;;;;;4171929;28;20048;-55
2023/08/11 06:26:49;;;;;;;3.80;0.98;;;19.80;99.90;;;;;;4171458;28;20241;-56
2023/08/11 06:29:10;;;;;;;2.92;1.00;;;20.10;99.90;;;;;;4172554;28;20140;-56
2023/08/11 06:31:30;;;;;;;1.17;1.00;;;20.10;99.90;;;;;;4172511;28;20075;-56
2023/08/11 06:33:51;;;;;;;2.22;1.10;;;20.10;99.90;;;;;;4172699;28;20068;-55
2023/08/11 06:36:11;;;;;;;2.15;1.00;;;20.00;99.90;;;;;;4171016;28;20379;-55
2023/08/11 06:38:32;;;;;;;2.50;1.00;;;20.00;99.90;;;;;;4172473;28;20110;-55
2023/08/11 06:40:52;;;;;;;1.23;1.17;;;20.40;99.90;;;;;;4170445;28;20364;-56
2023/08/11 06:43:11;;;;;;;3.80;1.00;;;20.60;99.90;;;;;;4172518;28;20233;-55
2023/08/11 06:45:31;;;;;;;1.00;1.00;;;21.00;99.90;;;;;;4171629;28;20048;-55
2023/08/11 06:47:51;;;;;;;0.90;0.90;;;21.30;99.90;;;;;;4171181;28;20051;-56
2023/08/11 06:50:11;;;;;;;1.48;1.00;;;21.30;99.90;;;;;;4171588;28;20087;-56
2023/08/11 06:52:31;;;;;;;1.38;1.00;;;21.40;99.90;;;;;;4171966;28;20060;-55
2023/08/11 06:54:51;;;;;;;1.15;0.90;;;21.50;99.90;;;;;;4172188;28;20264;-56
2023/08/11 06:57:11;;;;;;;1.48;0.80;;;21.40;99.90;;;;;;4171538;28;20391;-55
2023/08/11 06:59:31;;;;;;;2.25;1.20;;;21.30;99.90;;;;;;4169775;28;20117;-55
2023/08/11 07:01:51;;;;;;;1.77;0.90;;;21.50;99.90;;;;;;4169282;28;20045;-56
2023/08/11 07:04:11;;;;;;;2.63;0.95;;;21.60;99.90;;;;;;4172136;28;20067;-55
2023/08/11 07:06:31;;;;;;;3.70;0.80;;;22.30;99.90;;;;;;4169897;28;20053;-56
2023/08/11 07:08:51;;;;;;;2.58;0.90;;;22.30;99.90;;;;;;4169635;28;20083;-56
2023/08/11 07:11:11;;;;;;;0.90;0.90;;;22.20;99.90;;;;;;4170020;28;20071;-56
2023/08/11 07:13:31;;;;;;;1.08;0.95;;;22.00;99.90;;;;;;4171428;28;20083;-55
2023/08/11 07:15:54;;;;;;;1.83;0.82;;;22.00;99.90;;;;;;4172115;28;20056;-55
2023/08/11 07:18:14;;;;;;;1.52;0.90;;;22.20;99.90;;;;;;4171198;28;20291;-56
2023/08/11 07:20:34;;;;;;;2.60;0.85;;;22.90;99.90;;;;;;4171688;28;20052;-56
2023/08/11 07:22:54;;;;;;;2.05;0.80;;;23.10;99.90;;;;;;4170553;28;20091;-55
2023/08/11 07:25:14;;;;;;;1.23;0.80;;;22.90;99.90;;;;;;4169389;28;20091;-55
2023/08/11 07:27:34;;;;;;;5.20;0.90;;;22.90;99.90;;;;;;4171607;28;20228;-55
2023/08/11 07:29:54;;;;;;;0.70;0.70;;;22.90;99.90;;;;;;4166866;28;20045;-55
2023/08/11 07:32:13;;;;;;;2.55;0.80;;;22.90;99.90;;;;;;4165546;28;20044;-56
2023/08/11 07:34:33;;;;;;;1.50;1.38;;;23.20;99.90;;;;;;4173461;28;20395;-56
2023/08/11 07:36:53;;;;;;;2.95;0.80;;;23.50;99.90;;;;;;4173022;28;20041;-56
2023/08/11 07:39:13;;;;;;;2.05;0.88;;;23.30;99.90;;;;;;4172940;28;20142;-56
2023/08/11 07:41:36;;;;;;;4.90;0.80;;;23.40;99.90;;;;;;4173137;28;20051;-55
2023/08/11 07:43:56;;;;;;;1.00;0.80;;;23.50;99.90;;;;;;4174350;28;20079;-56
2023/08/11 07:46:16;;;;;;;2.15;0.80;;;23.60;99.90;;;;;;4173635;28;20055;-56
2023/08/11 07:48:37;;;;;;;1.48;0.70;;;23.80;99.90;;;;;;4173884;28;20048;-56
2023/08/11 07:50:57;;;;;;;0.80;0.80;;;24.10;99.90;;;;;;4173873;28;20049;-56
2023/08/11 07:53:17;;;;;;;0.70;0.70;;;24.60;99.90;;;;;;4173533;28;20068;-56
2023/08/11 07:55:37;;;;;;;1.08;0.80;;;24.80;99.90;;;;;;4174513;28;20052;-56
2023/08/11 07:57:58;;;;;;;1.00;0.70;;;24.80;99.90;;;;;;4170272;28;20375;-56
2023/08/11 08:00:20;;;;;;;4.28;0.80;;;24.70;99.90;;;;;;4173059;28;20370;-56
2023/08/11 08:02:40;;;;;;;1.80;0.70;;;25.20;99.90;;;;;;4174582;28;20275;-56
2023/08/11 08:05:00;;;;;;;1.77;0.80;;;25.40;99.90;;;;;;4174184;28;20049;-56
2023/08/11 08:07:32;;;;;;;6.88;1.67;;;25.60;99.90;;;;;;4170284;28;20256;-56
2023/08/11 08:09:52;;;;;;;7.10;0.70;;;25.80;99.90;;;;;;4174395;28;20087;-56
2023/08/11 08:12:15;;;;;;;2.47;0.70;;;26.20;99.50;;;;;;4172965;28;20048;-56
2023/08/11 08:14:35;;;;;;;0.63;0.63;;;26.20;98.20;;;;;;4174189;28;20276;-56
2023/08/11 08:16:56;;;;;;;1.35;0.70;;;25.70;98.00;;;;;;4173911;28;20061;-55
2023/08/11 08:19:18;;;;;;;1.40;0.60;;;25.60;99.70;;;;;;4173307;28;20052;-56
2023/08/11 08:21:39;;;;;;;3.38;0.65;;;26.00;99.60;;;;;;4174355;28;20278;-56
2023/08/11 08:24:00;;;;;;;2.30;0.70;;;26.40;98.50;;;;;;4173939;28;20113;-56
2023/08/11 08:26:20;;;;;;;1.58;0.68;;;26.60;97.00;;;;;;4173892;28;20355;-56
2023/08/11 08:28:39;;;;;;;0.70;0.70;;;26.70;96.70;;;;;;4173904;28;20092;-56
2023/08/11 08:31:00;;;;;;;1.95;0.70;;;27.30;97.40;;;;;;4171763;28;20044;-56
2023/08/11 08:33:20;;;;;;;1.15;0.50;;;27.70;95.80;;;;;;4172511;28;20049;-56
2023/08/11 08:35:40;;;;;;;0.90;0.60;;;27.70;96.50;;;;;;4173203;28;20091;-56
2023/08/11 08:38:00;;;;;;;0.93;0.60;;;27.80;96.30;;;;;;4173127;28;20068;-56
2023/08/11 08:40:20;;;;;;;0.60;0.60;;;27.80;95.60;;;;;;4173906;28;20271;-56
2023/08/11 08:42:41;;;;;;;0.70;0.70;;;27.70;94.10;;;;;;4171182;28;20052;-56
2023/08/11 08:45:03;;;;;;;1.58;0.60;;;27.50;93.40;;;;;;4173075;28;20104;-56
2023/08/11 08:47:24;;;;;;;0.85;0.85;;;27.40;94.00;;;;;;4171535;28;20092;-56
2023/08/11 08:49:45;;;;;;;0.50;0.50;;;27.90;94.20;;;;;;4173952;28;20079;-56
2023/08/11 08:52:06;;;;;;;1.13;0.57;;;28.20;93.50;;;;;;4171539;28;20068;-56
2023/08/11 08:54:27;;;;;;;0.50;0.50;;;28.70;92.80;;;;;;4169248;28;20169;-56
2023/08/11 08:56:47;;;;;;;0.52;0.47;;;28.90;92.50;;;;;;4168033;28;20044;-56
2023/08/11 08:59:07;;;;;;;0.50;0.50;;;28.70;92.50;;;;;;4173751;28;20104;-56
2023/08/11 09:01:28;;;;;;;0.57;0.50;;;28.80;92.30;;;;;;4172205;28;20111;-56
2023/08/11 09:03:49;;;;;;;0.50;0.50;;;28.90;90.30;;;;;;4173029;28;20117;-56
2023/08/11 09:06:11;;;;;;;1.20;0.50;;;29.10;92.10;;;;;;4170028;28;20084;-56
2023/08/11 09:08:38;;;;;;;1.95;0.98;;;29.60;91.80;;;;;;4173102;28;20048;-56
2023/08/11 09:10:58;;;;;;;4.15;0.60;;;29.70;91.70;;;;;;4173167;28;20080;-57
2023/08/11 09:13:19;;;;;;;0.40;0.40;;;29.70;88.80;;;;;;4173661;28;20052;-57
2023/08/11 09:15:39;;;;;;;1.65;0.50;;;29.70;90.50;;;;;;4172629;28;20084;-56
2023/08/11 09:17:59;;;;;;;0.50;0.50;;;29.70;90.10;;;;;;4172696;28;20079;-56
2023/08/11 09:20:20;;;;;;;0.57;0.40;;;29.30;88.80;;;;;;4170421;28;20080;-57
2023/08/11 09:22:40;;;;;;;1.05;0.50;;;29.80;90.50;;;;;;4173339;28;20077;-57
2023/08/11 09:25:00;;;;;;;1.48;0.40;;;30.10;90.00;;;;;;4173267;28;20060;-57
2023/08/11 09:27:21;;;;;;;0.88;0.50;;;30.20;90.00;;;;;;4172390;28;20095;-57
2023/08/11 09:29:41;;;;;;;1.85;0.47;;;30.10;89.50;;;;;;4172235;28;20083;-56
2023/08/11 09:32:04;;;;;;;0.75;0.40;;;30.20;89.70;;;;;;4173083;28;20063;-57
2023/08/11 09:34:24;;;;;;;0.70;0.70;;;30.30;89.20;;;;;;4172951;28;20424;-57
2023/08/11 09:36:45;;;;;;;1.17;0.50;;;30.60;88.00;;;;;;4172793;28;20094;-56
2023/08/11 09:39:09;;;;;;;1.10;0.52;;;30.40;87.80;;;;;;4172201;28;20052;-57
2023/08/11 09:41:29;;;;;;;1.42;0.50;;;30.50;88.10;;;;;;4172937;28;20064;-57
2023/08/11 09:43:49;;;;;;;0.40;0.40;;;30.80;89.30;;;;;;4171617;28;20056;-56
2023/08/11 09:46:09;;;;;;;1.17;0.40;;;30.90;85.50;;;;;;4172124;28;20368;-57
2023/08/11 09:48:29;;;;;;;0.50;0.50;;;30.70;85.80;;;;;;4172175;28;20079;-57
2023/08/11 09:50:51;;;;;;;0.40;0.40;;;31.00;86.60;;;;;;4163365;28;20044;-56
2023/08/11 09:53:11;;;;;;;0.50;0.40;;;31.20;87.40;;;;;;4168703;28;20096;-57
2023/08/11 09:55:35;;;;;;;1.85;0.50;;;31.50;88.40;;;;;;4172233;28;20049;-57
2023/08/11 09:57:56;;;;;;;1.45;0.43;;;31.40;84.50;;;;;;4169040;28;20037;-57
2023/08/11 10:00:19;;;;;;;0.95;0.40;;;31.60;85.70;;;;;;4172675;28;20088;-57
2023/08/11 10:02:46;;;;;;;1.30;0.40;;;31.90;84.00;;;;;;4172709;28;20044;-57
2023/08/11 10:05:08;;;;;;;0.50;0.40;;;31.80;83.70;;;;;;4170977;28;20049;-57
2023/08/11 10:07:35;;;;;;;;;;;31.50;85.20;;;;;;4173455;28;20052;-57
2023/08/11 10:09:59;;;;;;;0.40;0.40;;;31.60;85.10;;;;;;4172357;28;19924;-57
2023/08/11 10:12:20;;;;;;;0.98;0.40;;;32.00;81.80;;;;;;4169371;28;20052;-57
2023/08/11 10:14:41;;;;;;;0.40;0.40;;;32.00;85.00;;;;;;4171832;28;20079;-56
2023/08/11 10:17:03;;;;;;;0.80;0.80;;;32.20;83.30;;;;;;4172833;28;20641;-57
2023/08/11 10:19:23;;;;;;;;;;;32.40;84.20;;;;;;4173074;28;20072;-57
2023/08/11 10:21:43;;;;;;;0.40;0.40;;;32.20;82.00;;;;;;4172760;28;20250;-57
2023/08/11 10:24:04;;;;;;;0.40;0.40;;;32.10;80.60;;;;;;4171554;28;20394;-57
2023/08/11 10:26:24;;;;;;;3.53;0.50;;;32.10;82.20;;;;;;4172353;28;20237;-57
2023/08/11 10:28:45;;;;;;;0.57;0.40;;;32.00;79.90;;;;;;4172143;28;20229;-57
2023/08/11 10:31:05;;;;;;;0.57;0.50;;;31.90;83.10;;;;;;4171938;28;20088;-57
2023/08/11 10:33:29;;;;;;;0.85;0.40;;;32.20;79.90;;;;;;4172514;28;20058;-57
2023/08/11 10:35:51;;;;;;;1.60;0.40;;;32.10;80.80;;;;;;4171922;28;20048;-57
2023/08/11 10:38:12;;;;;;;1.00;0.40;;;31.70;81.90;;;;;;4174507;28;20264;-57
2023/08/11 10:40:38;;;;;;;0.40;0.40;;;32.20;82.50;;;;;;4171059;28;20045;-57
2023/08/11 10:43:01;;;;;;;2.35;0.40;;;32.20;81.10;;;;;;4171059;28;20045;-57
2023/08/11 10:45:22;;;;;;;0.40;0.40;;;32.60;81.00;;;;;;4172585;28;20072;-58
2023/08/11 10:47:53;;;;;;;1.02;0.50;;;32.30;78.30;;;;;;4169087;28;20088;-57
2023/08/11 10:50:14;;;;;;;0.43;0.40;;;32.20;80.50;;;;;;4172560;28;20044;-57
2023/08/11 10:52:34;;;;;;;0.82;0.50;;;32.40;80.60;;;;;;4172461;28;20083;-58
2023/08/11 10:54:59;;;;;;;0.40;0.40;;;32.60;80.50;;;;;;4170944;28;20076;-57
2023/08/11 10:57:20;;;;;;;0.75;0.40;;;33.00;78.40;;;;;;4172465;28;20229;-57
2023/08/11 10:59:40;;;;;;;1.33;0.40;;;32.40;80.30;;;;;;4172324;28;20083;-58
2023/08/11 11:02:01;;;;;;;0.40;0.40;;;32.40;78.80;;;;;;4170356;28;20040;-57
2023/08/11 11:04:29;;;;;;;0.40;0.40;;;32.70;78.30;;;;;;4170384;28;20049;-57
2023/08/11 11:06:53;;;;;;;0.30;0.30;;;33.10;80.30;;;;;;4170189;28;20052;-57
2023/08/11 11:09:14;;;;;;;0.85;0.40;;;33.60;76.70;;;;;;4174785;28;20052;-57
2023/08/11 11:11:36;;;;;;;0.53;0.33;;;33.70;79.70;;;;;;4175006;28;20060;-57
2023/08/11 11:13:57;;;;;;;0.40;0.40;;;33.10;77.50;;;;;;4174591;28;20284;-58
2023/08/11 11:16:18;;;;;;;0.30;0.30;;;33.10;77.20;;;;;;4168914;28;20092;-57
2023/08/11 11:18:39;;;;;;;5.90;0.40;;;33.50;78.10;;;;;;4173545;28;20071;-58
2023/08/11 11:20:59;;;;;;;0.30;0.30;;;33.40;76.90;;;;;;4175209;28;20079;-57
2023/08/11 11:23:19;;;;;;;0.30;0.30;;;33.10;76.90;;;;;;4175006;28;20109;-57
2023/08/11 11:25:39;;;;;;;0.40;0.40;;;33.10;78.00;;;;;;4174469;28;20041;-57
2023/08/11 11:27:59;;;;;;;0.40;0.40;;;32.90;76.80;;;;;;4173281;28;20049;-57
2023/08/11 11:30:20;;;;;;;1.65;0.40;;;32.70;78.00;;;;;;4174854;28;20052;-57
2023/08/11 11:32:42;;;;;;;0.75;0.30;;;32.70;77.90;;;;;;4174133;28;20075;-57
2023/08/11 11:35:03;;;;;;;0.40;0.40;;;32.70;78.40;;;;;;4175025;28;20377;-57
2023/08/11 11:37:25;;;;;;;0.40;0.40;;;31.90;79.60;;;;;;4173674;28;20120;-57
2023/08/11 11:39:45;;;;;;;0.40;0.40;;;31.50;82.00;;;;;;4174448;28;20116;-57
2023/08/11 11:42:08;;;;;;;0.40;0.40;;;31.60;82.60;;;;;;4174164;28;20091;-58
2023/08/11 11:44:29;;;;;;;0.40;0.40;;;32.00;81.10;;;;;;4173033;28;20104;-57
2023/08/11 11:46:49;;;;;;;0.38;0.38;;;32.10;80.50;;;;;;4170572;28;20232;-57
2023/08/11 11:49:09;;;;;;;0.52;0.40;;;32.30;79.50;;;;;;4172487;28;20052;-57
2023/08/11 11:51:44;;;;;;;0.40;0.40;;;32.60;80.90;;;;;;4167992;28;20060;-57
2023/08/11 11:54:05;;;;;;;0.40;0.40;;;32.70;80.00;;;;;;4173691;28;20363;-58
2023/08/11 11:56:28;;;;;;;0.95;0.38;;;33.20;79.70;;;;;;4169320;28;20128;-58
2023/08/11 11:58:51;;;;;;;0.40;0.40;;;33.10;77.90;;;;;;4174471;28;20068;-57
2023/08/11 12:01:28;;;;;;;0.30;0.30;;;33.10;82.90;;;;;;4172953;28;20047;-57
2023/08/11 12:03:49;;;;;;;0.30;0.30;;;33.10;78.80;;;;;;4174278;28;20066;-58
2023/08/11 12:06:09;;;;;;;0.30;0.30;;;33.10;79.80;;;;;;4172382;28;20036;-57
2023/08/11 12:08:29;;;;;;;0.30;0.30;;;33.30;79.90;;;;;;4173786;28;20048;-58
2023/08/11 12:10:49;;;;;;;1.20;0.30;;;33.50;77.30;;;;;;4174541;28;20055;-57
2023/08/11 12:13:09;;;;;;;0.30;0.30;;;33.60;80.40;;;;;;4169974;28;20083;-57
2023/08/11 12:15:31;;;;;;;1.10;0.30;;;33.70;76.60;;;;;;4173597;28;20051;-57